createdAt,value
2019-05-02T00:02:28.577Z,7.32
2019-05-02T00:04:55.807Z,7.12
2019-05-02T00:07:25.376Z,7.12
2019-05-02T00:09:54.576Z,7.17
2019-05-02T00:12:23.971Z,7.13
2019-05-02T00:14:56.590Z,7.28
2019-05-02T00:17:25.558Z,7.15
2019-05-02T00:19:54.733Z,7.15
2019-05-02T00:22:23.721Z,7.15
2019-05-02T00:24:52.526Z,7.01
2019-05-02T00:27:21.350Z,7.06
2019-05-02T00:29:53.902Z,7.06
2019-05-02T00:32:22.455Z,6.90
2019-05-02T00:34:51.565Z,7.07
2019-05-02T00:37:24.597Z,7.07
2019-05-02T00:39:50.956Z,7.23
2019-05-02T00:42:22.409Z,7.19
2019-05-02T00:44:50.184Z,7.35
2019-05-02T00:47:26.463Z,7.24
2019-05-02T00:49:55.244Z,7.22
2019-05-02T00:52:23.979Z,7.15
2019-05-02T00:54:54.990Z,7.12
2019-05-02T00:57:23.213Z,7.12
2019-05-02T00:59:52.030Z,7.07
2019-05-02T01:02:30.883Z,7.08
2019-05-02T01:05:03.222Z,7.13
2019-05-02T01:07:30.121Z,7.09
2019-05-02T01:09:58.864Z,7.16
2019-05-02T01:12:27.688Z,7.20
2019-05-02T01:14:56.748Z,7.49
2019-05-02T01:17:26.094Z,7.68
2019-05-02T01:19:56.011Z,7.75
2019-05-02T01:22:24.801Z,7.92
2019-05-02T01:24:53.734Z,8.07
2019-05-02T01:27:41.268Z,8.05
2019-05-02T01:30:21.294Z,7.67
2019-05-02T01:33:15.004Z,7.63
2019-05-02T01:35:55.122Z,7.60
2019-05-02T01:38:31.884Z,7.45
2019-05-02T01:40:58.569Z,7.58
2019-05-02T01:43:29.293Z,7.81
2019-05-02T01:45:58.192Z,7.96
2019-05-02T01:48:27.721Z,8.00
2019-05-02T01:50:56.977Z,7.86
2019-05-02T01:53:29.142Z,7.62
2019-05-02T01:55:57.286Z,7.64
2019-05-02T01:58:26.957Z,7.64
2019-05-02T02:00:55.765Z,7.69
2019-05-02T02:03:24.711Z,7.69
2019-05-02T02:05:53.547Z,7.85
2019-05-02T02:08:22.596Z,7.77
2019-05-02T02:10:56.071Z,7.87
2019-05-02T02:13:22.091Z,7.87
2019-05-02T02:15:50.917Z,7.79
2019-05-02T02:18:22.187Z,7.97
2019-05-02T02:21:01.778Z,7.90
2019-05-02T02:23:38.686Z,7.95
2019-05-02T02:26:12.031Z,7.85
2019-05-02T02:28:41.183Z,7.73
2019-05-02T02:31:10.260Z,7.87
2019-05-02T02:33:40.860Z,7.77
2019-05-02T02:36:10.155Z,7.72
2019-05-02T02:38:39.422Z,7.76
2019-05-02T02:41:13.104Z,7.76
2019-05-02T02:43:39.343Z,7.64
2019-05-02T02:46:16.883Z,7.59
2019-05-02T02:48:46.014Z,7.58
2019-05-02T02:51:24.099Z,7.76
2019-05-02T02:53:45.910Z,7.76
2019-05-02T02:56:15.079Z,7.87
2019-05-02T02:58:46.026Z,7.87
2019-05-02T03:01:27.612Z,8.05
2019-05-02T03:03:46.087Z,8.05
2019-05-02T03:06:15.317Z,8.16
2019-05-02T03:08:48.801Z,8.14
2019-05-02T03:11:23.257Z,8.31
2019-05-02T03:14:05.575Z,8.31
2019-05-02T03:16:27.050Z,8.21
2019-05-02T03:18:56.494Z,8.14
2019-05-02T03:21:25.729Z,8.19
2019-05-02T03:24:03.410Z,8.19
2019-05-02T03:26:26.487Z,8.10
2019-05-02T03:28:58.464Z,8.21
2019-05-02T03:31:30.282Z,8.20
2019-05-02T03:34:00.865Z,8.19
2019-05-02T03:36:35.799Z,8.19
2019-05-02T03:39:00.144Z,8.21
2019-05-02T03:41:28.973Z,8.13
2019-05-02T03:44:10.853Z,8.07
2019-05-02T03:46:29.245Z,8.07
2019-05-02T03:49:05.431Z,8.08
2019-05-02T03:51:28.981Z,8.08
2019-05-02T03:54:06.293Z,8.14
2019-05-02T03:56:28.420Z,8.17
2019-05-02T03:58:58.202Z,8.18
2019-05-02T04:01:27.495Z,8.19
2019-05-02T04:03:56.324Z,8.13
2019-05-02T04:06:25.329Z,8.17
2019-05-02T04:09:00.129Z,8.19
2019-05-02T04:11:25.885Z,8.17
2019-05-02T04:13:57.953Z,8.17
2019-05-02T04:16:28.627Z,8.17
2019-05-02T04:18:58.737Z,8.28
2019-05-02T04:21:27.610Z,8.28
2019-05-02T04:24:06.709Z,8.33
2019-05-02T04:26:28.175Z,8.33
2019-05-02T04:28:57.683Z,8.33
2019-05-02T04:31:31.400Z,8.35
2019-05-02T04:33:57.256Z,8.35
2019-05-02T04:36:26.029Z,8.31
2019-05-02T04:38:54.789Z,8.31
2019-05-02T04:41:28.432Z,8.27
2019-05-02T04:43:57.693Z,8.33
2019-05-02T04:46:30.110Z,8.20
2019-05-02T04:48:55.090Z,8.21
2019-05-02T04:51:27.449Z,8.25
2019-05-02T04:53:54.654Z,8.41
2019-05-02T04:56:23.421Z,8.06
2019-05-02T04:58:52.248Z,8.14
2019-05-02T05:01:21.587Z,8.23
2019-05-02T05:03:58.189Z,8.09
2019-05-02T05:06:20.908Z,8.12
2019-05-02T05:08:49.654Z,8.25
2019-05-02T05:11:24.672Z,8.06
2019-05-02T05:13:52.532Z,8.06
2019-05-02T05:16:20.091Z,8.12
2019-05-02T05:18:53.030Z,8.14
2019-05-02T05:21:19.459Z,8.18
2019-05-02T05:24:07.778Z,8.20
2019-05-02T05:26:42.756Z,8.24
2019-05-02T05:29:08.796Z,8.19
2019-05-02T05:31:38.287Z,8.37
2019-05-02T05:34:07.784Z,8.29
2019-05-02T05:36:37.636Z,8.18
2019-05-02T05:39:08.625Z,8.27
2019-05-02T05:41:37.929Z,8.27
2019-05-02T05:44:07.747Z,8.24
2019-05-02T05:46:38.758Z,8.30
2019-05-02T05:49:10.463Z,8.42
2019-05-02T05:51:37.645Z,8.50
2019-05-02T05:54:07.780Z,8.50
2019-05-02T05:56:42.980Z,8.59
2019-05-02T05:59:07.977Z,8.35
2019-05-02T06:01:38.402Z,8.35
2019-05-02T06:04:08.000Z,8.30
2019-05-02T06:06:37.749Z,8.32
2019-05-02T06:09:08.965Z,8.32
2019-05-02T06:11:37.840Z,8.45
2019-05-02T06:14:06.749Z,8.36
2019-05-02T06:16:35.564Z,8.36
2019-05-02T06:19:04.618Z,8.26
2019-05-02T06:21:33.474Z,8.26
2019-05-02T06:24:02.302Z,8.29
2019-05-02T06:26:31.056Z,8.38
2019-05-02T06:28:59.815Z,8.28
2019-05-02T06:31:28.550Z,8.42
2019-05-02T06:33:57.305Z,8.42
2019-05-02T06:36:26.423Z,8.36
2019-05-02T06:38:56.754Z,8.25
2019-05-02T06:41:25.724Z,8.23
2019-05-02T06:43:54.505Z,8.40
2019-05-02T06:46:27.598Z,8.53
2019-05-02T06:48:53.796Z,8.51
2019-05-02T06:51:32.553Z,8.37
2019-05-02T06:54:18.042Z,8.55
2019-05-02T06:56:53.437Z,8.71
2019-05-02T06:59:26.678Z,8.59
2019-05-02T07:01:58.883Z,8.71
2019-05-02T07:04:38.951Z,8.62
2019-05-02T07:07:13.334Z,8.72
2019-05-02T07:09:48.434Z,8.89
2019-05-02T07:12:20.756Z,8.89
2019-05-02T07:14:55.985Z,8.89
2019-05-02T07:17:44.359Z,8.97
2019-05-02T07:20:35.189Z,8.60
2019-05-02T07:23:10.707Z,8.80
2019-05-02T07:25:46.177Z,9.01
2019-05-02T07:28:24.870Z,9.01
2019-05-02T07:31:06.558Z,9.01
2019-05-02T07:33:39.206Z,8.74
2019-05-02T07:36:15.343Z,9.01
2019-05-02T07:38:48.771Z,9.18
2019-05-02T07:41:17.487Z,9.38
2019-05-02T07:43:46.233Z,9.43
2019-05-02T07:46:16.152Z,9.40
2019-05-02T07:48:48.983Z,9.46
2019-05-02T07:51:17.329Z,9.44
2019-05-02T07:53:48.579Z,9.44
2019-05-02T07:56:18.714Z,9.57
2019-05-02T07:58:48.173Z,9.39
2019-05-02T08:01:17.003Z,9.05
2019-05-02T08:03:45.735Z,9.08
2019-05-02T08:06:14.483Z,8.97
2019-05-02T08:08:43.287Z,9.18
2019-05-02T08:11:12.229Z,9.35
2019-05-02T08:13:41.106Z,9.42
2019-05-02T08:16:10.007Z,9.11
2019-05-02T08:18:38.870Z,9.42
2019-05-02T08:21:07.948Z,9.54
2019-05-02T08:23:36.674Z,9.53
2019-05-02T08:26:05.714Z,9.50
2019-05-02T08:29:02.536Z,9.75
2019-05-02T08:31:31.356Z,10.17
2019-05-02T08:34:00.220Z,10.11
2019-05-02T08:36:28.977Z,9.84
2019-05-02T08:38:57.755Z,9.84
2019-05-02T08:41:26.506Z,9.98
2019-05-02T08:43:55.351Z,9.46
2019-05-02T08:46:24.108Z,9.57
2019-05-02T08:48:52.854Z,9.72
2019-05-02T08:51:21.587Z,9.90
2019-05-02T08:53:52.004Z,9.64
2019-05-02T08:56:21.296Z,9.65
2019-05-02T08:58:51.198Z,9.92
2019-05-02T09:01:20.075Z,10.05
2019-05-02T09:03:55.023Z,10.36
2019-05-02T09:06:22.648Z,9.98
2019-05-02T09:08:51.376Z,9.99
2019-05-02T09:11:20.276Z,10.12
2019-05-02T09:13:49.210Z,10.00
2019-05-02T09:16:23.732Z,10.50
2019-05-02T09:18:53.360Z,10.33
2019-05-02T09:21:19.014Z,10.45
2019-05-02T09:23:47.761Z,10.20
2019-05-02T09:26:16.649Z,10.26
2019-05-02T09:28:45.479Z,10.21
2019-05-02T09:31:16.109Z,10.25
2019-05-02T09:33:46.830Z,10.52
2019-05-02T09:36:15.387Z,10.77
2019-05-02T09:38:44.177Z,10.52
2019-05-02T09:41:18.849Z,10.29
2019-05-02T09:43:43.450Z,10.41
2019-05-02T09:46:16.515Z,10.67
2019-05-02T09:48:43.829Z,10.90
2019-05-02T09:51:17.314Z,11.04
2019-05-02T09:53:43.331Z,10.91
2019-05-02T09:56:12.813Z,10.70
2019-05-02T09:58:42.148Z,10.83
2019-05-02T10:01:34.269Z,11.18
2019-05-02T10:04:03.091Z,11.33
2019-05-02T10:06:33.954Z,10.78
2019-05-02T10:09:02.895Z,11.26
2019-05-02T10:11:32.331Z,11.50
2019-05-02T10:14:02.448Z,10.76
2019-05-02T10:16:31.918Z,11.22
2019-05-02T10:19:09.628Z,11.00
2019-05-02T10:21:31.834Z,11.35
2019-05-02T10:24:01.687Z,11.52
2019-05-02T10:26:32.945Z,11.21
2019-05-02T10:29:02.029Z,11.39
2019-05-02T10:31:33.484Z,11.09
2019-05-02T10:34:02.383Z,11.44
2019-05-02T10:36:32.530Z,11.31
2019-05-02T10:39:01.790Z,11.54
2019-05-02T10:41:38.821Z,11.75
2019-05-02T10:44:02.188Z,11.31
2019-05-02T10:46:37.851Z,11.39
2019-05-02T10:49:18.719Z,11.87
2019-05-02T10:51:51.239Z,11.70
2019-05-02T10:54:20.586Z,11.91
2019-05-02T10:56:48.652Z,11.98
2019-05-02T10:59:17.371Z,12.02
2019-05-02T11:02:05.381Z,12.37
2019-05-02T11:04:36.466Z,12.37
2019-05-02T11:07:05.498Z,12.44
2019-05-02T11:09:34.235Z,12.17
2019-05-02T11:12:04.844Z,12.41
2019-05-02T11:14:39.881Z,12.11
2019-05-02T11:17:17.657Z,11.96
2019-05-02T11:19:52.336Z,12.10
2019-05-02T11:22:22.771Z,12.08
2019-05-02T11:24:52.338Z,11.75
2019-05-02T11:27:22.088Z,11.94
2019-05-02T11:29:52.585Z,11.99
2019-05-02T11:32:22.115Z,12.21
2019-05-02T11:34:52.417Z,12.18
2019-05-02T11:37:22.645Z,12.71
2019-05-02T11:39:58.506Z,12.44
2019-05-02T11:42:27.121Z,12.68
2019-05-02T11:44:53.209Z,12.64
2019-05-02T11:47:26.494Z,12.22
2019-05-02T11:49:55.916Z,12.42
2019-05-02T11:52:27.482Z,12.11
2019-05-02T11:54:53.891Z,11.97
2019-05-02T11:57:28.520Z,12.26
2019-05-02T11:59:53.663Z,12.75
2019-05-02T12:02:38.223Z,13.23
2019-05-02T12:05:08.805Z,12.64
2019-05-02T12:07:37.604Z,12.37
2019-05-02T12:10:06.707Z,12.44
2019-05-02T12:12:36.408Z,12.04
2019-05-02T12:15:06.028Z,12.93
2019-05-02T12:17:34.804Z,13.07
2019-05-02T12:20:03.852Z,13.18
2019-05-02T12:22:32.791Z,13.36
2019-05-02T12:25:02.974Z,12.99
2019-05-02T12:27:31.950Z,12.75
2019-05-02T12:30:03.122Z,12.72
2019-05-02T12:32:33.448Z,13.22
2019-05-02T12:35:02.499Z,13.74
2019-05-02T12:37:32.696Z,13.71
2019-05-02T12:40:02.664Z,13.95
2019-05-02T12:42:33.067Z,13.73
2019-05-02T12:45:03.027Z,13.38
2019-05-02T12:47:32.030Z,13.74
2019-05-02T12:50:02.977Z,13.69
2019-05-02T12:52:32.094Z,13.17
2019-05-02T12:55:02.268Z,13.23
2019-05-02T12:57:32.141Z,13.47
2019-05-02T13:00:02.163Z,13.82
2019-05-02T13:02:41.713Z,13.87
2019-05-02T13:05:10.591Z,13.83
2019-05-02T13:07:42.797Z,14.06
2019-05-02T13:10:12.914Z,13.90
2019-05-02T13:12:42.585Z,13.91
2019-05-02T13:15:12.823Z,13.84
2019-05-02T13:17:48.441Z,14.24
2019-05-02T13:20:15.433Z,14.49
2019-05-02T13:23:03.309Z,14.59
2019-05-02T13:25:36.945Z,14.55
2019-05-02T13:28:03.515Z,14.57
2019-05-02T13:30:46.486Z,14.13
2019-05-02T13:33:20.029Z,14.38
2019-05-02T13:35:51.986Z,14.55
2019-05-02T13:38:22.478Z,14.63
2019-05-02T13:40:51.856Z,14.38
2019-05-02T13:43:22.183Z,14.07
2019-05-02T13:46:12.471Z,14.53
2019-05-02T13:48:42.855Z,14.53
2019-05-02T13:51:11.929Z,14.74
2019-05-02T13:53:55.247Z,15.00
2019-05-02T13:56:45.763Z,14.62
2019-05-02T13:59:14.996Z,14.79
2019-05-02T14:01:44.609Z,14.73
2019-05-02T14:04:14.937Z,14.60
2019-05-02T14:06:43.954Z,14.29
2019-05-02T14:09:22.921Z,14.20
2019-05-02T14:12:01.980Z,14.48
2019-05-02T14:14:32.593Z,14.50
2019-05-02T14:17:03.009Z,14.51
2019-05-02T14:19:32.194Z,14.32
2019-05-02T14:22:02.804Z,14.54
2019-05-02T14:24:32.230Z,14.78
2019-05-02T14:27:02.599Z,14.78
2019-05-02T14:29:33.003Z,14.59
2019-05-02T14:32:02.673Z,14.63
2019-05-02T14:34:42.632Z,14.67
2019-05-02T14:37:11.874Z,15.12
2019-05-02T14:39:41.672Z,14.71
2019-05-02T14:42:15.358Z,14.85
2019-05-02T14:45:04.285Z,15.02
2019-05-02T14:47:17.874Z,14.71
2019-05-02T14:49:42.906Z,14.47
2019-05-02T14:52:12.655Z,14.61
2019-05-02T14:54:43.846Z,14.55
2019-05-02T14:57:20.181Z,14.62
2019-05-02T14:59:50.286Z,14.64
2019-05-02T15:02:39.355Z,14.67
2019-05-02T15:05:06.505Z,15.12
2019-05-02T15:07:38.246Z,15.22
2019-05-02T15:10:06.714Z,14.94
2019-05-02T15:12:35.483Z,14.95
2019-05-02T15:15:04.757Z,14.95
2019-05-02T15:17:37.728Z,15.13
2019-05-02T15:20:04.589Z,14.99
2019-05-02T15:22:37.523Z,15.07
2019-05-02T15:25:07.856Z,14.92
2019-05-02T15:27:41.950Z,14.78
2019-05-02T15:30:07.371Z,14.86
2019-05-02T15:32:46.557Z,14.81
2019-05-02T15:35:29.025Z,14.85
2019-05-02T15:38:02.680Z,14.95
2019-05-02T15:43:02.831Z,14.88
2019-05-02T15:45:27.946Z,14.78
2019-05-02T15:47:56.760Z,14.83
2019-05-02T15:50:26.028Z,14.83
2019-05-02T15:53:09.766Z,14.85
2019-05-02T15:55:39.497Z,14.90
2019-05-02T15:58:04.650Z,14.89
2019-05-02T16:00:37.118Z,14.96
2019-05-02T16:03:05.988Z,14.99
2019-05-02T16:05:36.489Z,14.90
2019-05-02T16:08:08.856Z,15.05
2019-05-02T16:10:38.560Z,15.23
2019-05-02T16:13:08.824Z,15.13
2019-05-02T16:15:38.535Z,15.14
2019-05-02T16:18:07.464Z,15.20
2019-05-02T16:21:08.059Z,15.37
2019-05-02T16:23:36.916Z,15.26
2019-05-02T16:26:14.468Z,15.40
2019-05-02T16:28:45.446Z,15.56
2019-05-02T16:31:17.020Z,15.37
2019-05-02T16:33:49.739Z,15.27
2019-05-02T16:36:16.447Z,15.29
2019-05-02T16:38:45.217Z,15.03
2019-05-02T16:41:14.006Z,14.79
2019-05-02T16:43:42.757Z,14.85
2019-05-02T16:46:14.111Z,14.86
2019-05-02T16:48:42.625Z,14.73
2019-05-02T16:51:27.589Z,14.83
2019-05-02T16:53:42.719Z,14.93
2019-05-02T16:56:11.642Z,14.99
2019-05-02T16:58:43.395Z,14.79
2019-05-02T17:01:12.291Z,14.89
2019-05-02T17:03:42.377Z,14.91
2019-05-02T17:06:12.362Z,14.71
2019-05-02T17:08:57.407Z,14.79
2019-05-02T17:11:32.348Z,15.00
2019-05-02T17:13:59.267Z,15.20
2019-05-02T17:16:28.083Z,14.93
2019-05-02T17:18:56.808Z,14.97
2019-05-02T17:21:26.838Z,15.06
2019-05-02T17:23:56.079Z,14.90
2019-05-02T17:26:24.847Z,14.69
2019-05-02T17:28:53.637Z,14.70
2019-05-02T17:31:23.108Z,14.57
2019-05-02T17:33:52.961Z,14.61
2019-05-02T17:36:28.411Z,14.63
2019-05-02T17:38:54.541Z,14.44
2019-05-02T17:41:23.509Z,14.36
2019-05-02T17:43:52.273Z,14.35
2019-05-02T17:46:25.718Z,14.38
2019-05-02T17:48:52.762Z,14.23
2019-05-02T17:51:37.796Z,14.30
2019-05-02T17:54:07.841Z,14.13
2019-05-02T17:56:36.879Z,14.08
2019-05-02T17:59:05.905Z,14.05
2019-05-02T18:01:38.825Z,14.12
2019-05-02T18:04:12.730Z,14.01
2019-05-02T18:06:38.263Z,13.94
2019-05-02T18:09:08.608Z,13.35
2019-05-02T18:11:37.896Z,13.28
2019-05-02T18:14:16.173Z,12.89
2019-05-02T18:16:39.268Z,12.67
2019-05-02T18:19:07.981Z,12.71
2019-05-02T18:21:36.807Z,12.65
2019-05-02T18:24:06.209Z,12.62
2019-05-02T18:26:35.704Z,12.72
2019-05-02T18:29:06.890Z,12.74
2019-05-02T18:31:39.623Z,12.54
2019-05-02T18:34:06.449Z,12.57
2019-05-02T18:36:35.556Z,12.56
2019-05-02T18:39:06.667Z,12.41
2019-05-02T18:41:37.441Z,12.40
2019-05-02T18:44:06.169Z,12.35
2019-05-02T18:46:36.786Z,12.29
2019-05-02T18:49:06.015Z,12.11
2019-05-02T18:51:35.041Z,12.13
2019-05-02T18:54:07.438Z,12.07
2019-05-02T18:56:42.850Z,12.11
2019-05-02T18:59:06.378Z,12.14
2019-05-02T19:01:35.370Z,11.98
2019-05-02T19:04:04.421Z,12.02
2019-05-02T19:06:36.084Z,11.83
2019-05-02T19:09:07.406Z,11.79
2019-05-02T19:11:36.484Z,11.79
2019-05-02T19:14:05.807Z,11.72
2019-05-02T19:16:34.776Z,11.72
2019-05-02T19:19:03.623Z,11.63
2019-05-02T19:21:36.791Z,11.55
2019-05-02T19:24:03.056Z,11.49
2019-05-02T19:26:32.639Z,11.48
2019-05-02T19:29:22.123Z,11.44
2019-05-02T19:31:52.883Z,11.41
2019-05-02T19:34:26.413Z,11.28
2019-05-02T19:36:53.015Z,11.24
2019-05-02T19:39:24.251Z,11.32
2019-05-02T19:41:52.785Z,11.26
2019-05-02T19:44:29.133Z,11.36
2019-05-02T19:46:52.269Z,11.35
2019-05-02T19:49:22.423Z,11.36
2019-05-02T19:51:56.517Z,11.18
2019-05-02T19:54:23.010Z,11.18
2019-05-02T19:56:52.399Z,11.12
2019-05-02T19:59:25.207Z,11.00
2019-05-02T20:01:52.374Z,11.11
2019-05-02T20:04:22.183Z,10.99
2019-05-02T20:06:52.093Z,10.93
2019-05-02T20:09:20.866Z,10.97
2019-05-02T20:11:51.591Z,10.80
2019-05-02T20:14:21.822Z,10.81
2019-05-02T20:16:54.099Z,10.80
2019-05-02T20:19:26.953Z,10.63
2019-05-02T20:22:22.441Z,10.79
2019-05-02T20:25:00.185Z,10.81
2019-05-02T20:27:28.454Z,10.71
2019-05-02T20:29:58.085Z,10.55
2019-05-02T20:32:26.903Z,10.65
2019-05-02T20:34:56.250Z,10.67
2019-05-02T20:37:25.178Z,10.72
2019-05-02T20:39:54.069Z,10.71
2019-05-02T20:42:22.896Z,10.69
2019-05-02T20:44:52.802Z,10.60
2019-05-02T20:47:25.756Z,10.49
2019-05-02T20:49:54.568Z,10.53
2019-05-02T20:52:23.418Z,10.48
2019-05-02T20:54:52.540Z,10.59
2019-05-02T20:57:21.392Z,10.46
2019-05-02T20:59:52.304Z,10.48
2019-05-02T21:02:21.195Z,10.52
2019-05-02T21:04:52.170Z,10.46
2019-05-02T21:07:33.031Z,10.44
2019-05-02T21:10:21.746Z,10.55
2019-05-02T21:12:52.564Z,10.51
2019-05-02T21:15:21.754Z,10.56
2019-05-02T21:17:50.494Z,10.47
2019-05-02T21:20:19.492Z,10.49
2019-05-02T21:22:48.803Z,10.43
2019-05-02T21:25:17.848Z,10.61
2019-05-02T21:27:46.763Z,10.62
2019-05-02T21:30:17.345Z,10.46
2019-05-02T21:33:59.176Z,10.39
2019-05-02T21:40:57.135Z,10.13
2019-05-02T21:44:45.583Z,10.15
2019-05-02T21:46:48.885Z,10.14
2019-05-02T21:50:22.630Z,10.13
2019-05-02T21:53:27.200Z,10.03
2019-05-02T21:56:46.944Z,10.07
2019-05-02T22:00:27.375Z,10.09
2019-05-02T22:07:37.963Z,9.98
2019-05-02T22:21:53.825Z,9.90
2019-05-02T22:39:12.565Z,9.95
2019-05-02T22:42:13.499Z,10.07
2019-05-02T22:45:23.833Z,10.06
2019-05-02T22:47:43.758Z,10.05
2019-05-02T22:50:14.105Z,10.17
2019-05-02T22:52:43.640Z,10.12
2019-05-02T22:55:14.115Z,10.15
2019-05-02T22:57:43.976Z,10.23
2019-05-02T23:00:16.533Z,10.12
2019-05-02T23:02:45.960Z,10.04
2019-05-02T23:05:15.445Z,10.13
2019-05-02T23:07:45.356Z,9.99
2019-05-02T23:10:15.657Z,9.99
2019-05-02T23:12:46.104Z,10.02
2019-05-02T23:15:17.002Z,9.95
2019-05-02T23:17:48.020Z,9.94
2019-05-02T23:20:17.592Z,10.05
2019-05-02T23:22:47.457Z,9.92
2019-05-02T23:25:42.554Z,9.85
2019-05-02T23:28:18.147Z,9.82
2019-05-02T23:30:47.017Z,9.95
2019-05-02T23:33:16.532Z,9.89
2019-05-02T23:35:48.120Z,9.85
2019-05-02T23:38:17.474Z,9.95
2019-05-02T23:44:03.924Z,9.80
2019-05-02T23:47:44.402Z,9.80
2019-05-02T23:49:58.295Z,9.59
2019-05-02T23:52:27.080Z,9.50
2019-05-02T23:54:55.901Z,9.08
2019-05-02T23:57:26.355Z,9.08
2019-05-02T23:59:58.302Z,9.03
